[ EDKA 050720Z AUTO 24003KT 6000 -SHRA ///////// 07/06 Q1013 ]
Windrichtung (graph.)
Inst: 210° 4.1 kt
2min: 215° 4.5 kt
10min: 217° 4.6 kt
Extrem: 209° – 229° 5.4 kt – 3.3 kt
Crosswind: 2.6 kt
Luftdruck (graph.)
QNH: 1013 hPa Temp: 7.1 °C
QNH: 29.91 inHg DewP: 5.7 °C
QFE: 990 hPa Hum: 91.0 %
QFE: 29.25 inHg